createdAt,value
2019-06-20T04:03:46.704Z,18.944397
2019-06-20T04:07:14.645Z,18.944397
2019-06-20T04:10:50.150Z,18.98468
2019-06-20T04:14:18.123Z,19.014893
2019-06-20T04:17:48.106Z,19.075317
2019-06-20T04:21:16.076Z,19.075317
2019-06-20T04:24:44.046Z,19.075317
2019-06-20T04:28:12.010Z,19.125671
2019-06-20T04:31:39.974Z,19.145813
2019-06-20T04:35:07.927Z,19.125671
2019-06-20T04:38:35.942Z,19.155884
2019-06-20T04:42:03.902Z,19.186096
2019-06-20T04:45:35.360Z,19.165955
2019-06-20T04:49:01.829Z,19.216309
2019-06-20T04:52:29.815Z,19.266663
2019-06-20T04:55:57.774Z,19.306946
2019-06-20T04:59:27.744Z,19.317017
2019-06-20T05:02:55.740Z,19.347229
2019-06-20T05:06:23.730Z,19.377441
2019-06-20T05:09:51.709Z,19.407654
2019-06-20T05:13:19.673Z,19.468079
2019-06-20T05:16:47.636Z,19.447937
2019-06-20T05:20:15.636Z,19.468079
2019-06-20T05:23:43.619Z,19.528503
2019-06-20T05:27:11.727Z,19.558716
2019-06-20T05:30:39.747Z,19.588928
2019-06-20T05:34:07.758Z,19.639282
2019-06-20T05:37:35.787Z,19.669495
2019-06-20T05:41:03.744Z,19.699707
2019-06-20T05:44:31.801Z,19.780273
2019-06-20T05:48:00.774Z,19.780273
2019-06-20T05:51:28.758Z,19.86084
2019-06-20T05:54:57.679Z,19.931335
2019-06-20T05:58:24.787Z,19.99176
2019-06-20T06:01:55.979Z,20.052185
2019-06-20T06:05:22.772Z,20.082397
2019-06-20T06:08:51.854Z,20.183105
2019-06-20T06:12:19.711Z,20.263672
2019-06-20T06:15:47.672Z,20.324097
2019-06-20T06:19:15.642Z,20.394592
2019-06-20T06:22:44.721Z,20.475159
2019-06-20T06:26:12.699Z,20.545654
2019-06-20T06:29:40.730Z,20.666504
2019-06-20T06:33:08.629Z,20.737
2019-06-20T06:36:36.607Z,20.797424
2019-06-20T06:40:04.575Z,20.817566
2019-06-20T06:43:32.536Z,20.797424
2019-06-20T06:47:04.523Z,20.827637
2019-06-20T06:50:32.479Z,20.827637
2019-06-20T06:54:00.442Z,20.877991
2019-06-20T06:57:28.415Z,20.99884
2019-06-20T07:00:56.393Z,21.079407
2019-06-20T07:04:24.345Z,21.180115
2019-06-20T07:07:53.180Z,21.230469
2019-06-20T07:11:21.167Z,21.25061
2019-06-20T07:14:49.099Z,21.300964
2019-06-20T07:18:17.084Z,21.351318
2019-06-20T07:21:45.048Z,21.452026
2019-06-20T07:25:13.020Z,21.532593
2019-06-20T07:28:41.083Z,21.552734
2019-06-20T07:32:09.047Z,21.512451
2019-06-20T07:35:37.001Z,21.50238
2019-06-20T07:39:06.949Z,21.472168
2019-06-20T07:42:34.925Z,21.50238
2019-06-20T07:46:03.341Z,21.532593
2019-06-20T07:49:30.948Z,21.673584
2019-06-20T07:53:02.202Z,21.713867
2019-06-20T07:56:28.895Z,21.734009
2019-06-20T07:59:56.874Z,21.734009
2019-06-20T08:03:24.824Z,21.74408
2019-06-20T08:06:52.804Z,21.804504
2019-06-20T08:10:20.847Z,21.895142
2019-06-20T08:13:48.826Z,21.955566
2019-06-20T08:17:31.476Z,22.00592
2019-06-20T08:20:51.691Z,22.116699
2019-06-20T08:24:19.663Z,22.207336
2019-06-20T08:27:47.699Z,22.187195
2019-06-20T08:31:15.635Z,22.227478
2019-06-20T08:34:43.607Z,22.308044
2019-06-20T08:38:11.575Z,22.338257
2019-06-20T08:41:39.571Z,22.489319
2019-06-20T08:45:07.494Z,22.620239
2019-06-20T08:48:35.641Z,22.640381
2019-06-20T08:52:03.590Z,22.640381
2019-06-20T08:55:34.471Z,22.731018
2019-06-20T08:59:02.668Z,22.771301
2019-06-20T09:02:33.412Z,22.831726
2019-06-20T09:09:30.452Z,23.113708
2019-06-20T09:12:59.116Z,23.264771
2019-06-20T09:16:27.388Z,23.415833
2019-06-20T09:19:55.889Z,23.597107
2019-06-20T09:23:24.322Z,23.687744
2019-06-20T09:26:52.708Z,23.607178
2019-06-20T09:30:22.268Z,23.667603
2019-06-20T09:33:52.076Z,23.597107
2019-06-20T09:37:24.135Z,23.63739
2019-06-20T09:40:53.026Z,23.687744
2019-06-20T09:44:21.066Z,23.738098
2019-06-20T09:47:50.385Z,23.75824
2019-06-20T09:51:21.234Z,23.808594
2019-06-20T09:54:50.146Z,23.818665
2019-06-20T09:58:20.151Z,23.919373
2019-06-20T10:01:49.465Z,23.879089
2019-06-20T10:05:21.019Z,23.808594
2019-06-20T10:08:50.057Z,23.75824
2019-06-20T10:12:28.457Z,23.818665
2019-06-20T10:15:56.417Z,23.728027
2019-06-20T10:19:24.605Z,23.657532
2019-06-20T10:22:53.022Z,23.667603
2019-06-20T10:26:21.498Z,23.667603
2019-06-20T10:29:49.463Z,23.75824
2019-06-20T10:33:19.399Z,23.778381
2019-06-20T10:36:48.102Z,23.858948
2019-06-20T10:40:16.336Z,23.879089
2019-06-20T10:43:45.692Z,23.788452
2019-06-20T10:47:28.913Z,23.738098
2019-06-20T10:50:52.118Z,23.778381
2019-06-20T10:54:20.059Z,23.707886
2019-06-20T10:57:49.795Z,23.697815
2019-06-20T11:01:18.002Z,23.607178
2019-06-20T11:04:45.957Z,23.516541
2019-06-20T11:08:15.899Z,23.435974
2019-06-20T11:11:44.766Z,23.38562
2019-06-20T11:15:14.810Z,23.234558
2019-06-20T11:18:43.743Z,23.073425
2019-06-20T11:22:12.697Z,22.962646
2019-06-20T11:25:41.952Z,22.912292
2019-06-20T11:29:11.696Z,22.861938
2019-06-20T11:32:40.792Z,22.831726
2019-06-20T11:36:08.635Z,22.851868
2019-06-20T11:39:37.385Z,22.831726
2019-06-20T11:43:07.515Z,22.912292
2019-06-20T11:46:36.958Z,22.962646
2019-06-20T11:50:06.393Z,22.992859
2019-06-20T11:53:35.228Z,22.962646
2019-06-20T11:57:06.288Z,22.992859
2019-06-20T12:00:34.259Z,22.962646
2019-06-20T12:04:02.212Z,22.932434
2019-06-20T12:07:31.174Z,22.892151
2019-06-20T12:10:59.147Z,22.861938
2019-06-20T12:14:27.112Z,22.851868
2019-06-20T12:17:55.091Z,22.912292
2019-06-20T12:21:23.064Z,22.952576
2019-06-20T12:24:51.008Z,22.982788
2019-06-20T12:28:18.997Z,23.013
2019-06-20T12:31:48.424Z,22.952576
2019-06-20T12:35:17.901Z,22.731018
2019-06-20T12:38:46.223Z,22.700806
2019-06-20T12:42:15.812Z,22.670593
2019-06-20T12:45:43.769Z,22.680664
2019-06-20T12:49:14.731Z,22.640381
2019-06-20T12:52:45.355Z,22.680664
2019-06-20T12:56:14.647Z,22.700806
2019-06-20T12:59:42.718Z,22.670593
2019-06-20T13:03:13.542Z,22.660522
2019-06-20T13:06:44.386Z,22.610168
2019-06-20T13:10:13.425Z,22.549744
2019-06-20T13:13:42.155Z,22.529602
2019-06-20T13:17:09.380Z,22.479248
2019-06-20T13:20:42.282Z,22.50946
2019-06-20T13:24:20.466Z,22.459106
2019-06-20T13:27:50.225Z,22.398682
2019-06-20T13:31:17.382Z,22.37854
2019-06-20T13:34:46.928Z,22.227478
2019-06-20T13:38:14.901Z,21.552734
2019-06-20T13:41:43.179Z,20.555725
2019-06-20T13:45:13.152Z,20.042114
2019-06-20T13:48:42.260Z,19.86084
2019-06-20T13:52:13.724Z,19.750061
2019-06-20T13:55:42.786Z,19.48822
2019-06-20T13:59:10.630Z,19.125671
2019-06-20T14:02:39.430Z,19.186096
2019-06-20T14:06:12.528Z,19.367371
2019-06-20T14:09:41.525Z,19.498291
2019-06-20T14:13:18.909Z,19.588928
2019-06-20T14:16:42.973Z,19.619141
2019-06-20T14:20:11.417Z,19.568787
2019-06-20T14:23:40.969Z,19.588928
2019-06-20T14:27:14.358Z,19.699707
2019-06-20T14:30:43.194Z,19.719849
2019-06-20T14:34:13.255Z,19.750061
2019-06-20T14:37:43.319Z,19.931335
2019-06-20T14:41:24.916Z,20.072327
2019-06-20T14:44:54.211Z,20.394592
2019-06-20T14:48:22.805Z,20.596008
2019-06-20T14:51:52.751Z,20.737
2019-06-20T14:55:21.708Z,20.767212
2019-06-20T14:58:51.431Z,20.696716
2019-06-20T15:02:19.777Z,20.334167
2019-06-20T15:05:52.718Z,19.99176
2019-06-20T15:09:21.647Z,19.780273
2019-06-20T15:12:51.363Z,19.780273
2019-06-20T15:16:23.381Z,19.790344
2019-06-20T15:19:54.255Z,19.639282
2019-06-20T15:23:24.070Z,19.840698
2019-06-20T15:26:54.251Z,19.971619
2019-06-20T15:30:24.496Z,20.173035
2019-06-20T15:33:53.420Z,19.961548
2019-06-20T15:37:22.772Z,20.173035
2019-06-20T15:40:53.481Z,20.173035
2019-06-20T15:44:23.033Z,19.810486
2019-06-20T15:47:52.152Z,20.021973
2019-06-20T15:51:21.859Z,19.840698
2019-06-20T15:54:52.272Z,19.750061
2019-06-20T15:58:20.066Z,19.901123
2019-06-20T16:01:55.694Z,19.99176
2019-06-20T16:05:23.869Z,20.092468
2019-06-20T16:08:54.021Z,20.092468
2019-06-20T16:12:29.093Z,20.082397
2019-06-20T16:15:57.603Z,20.072327
2019-06-20T16:19:25.582Z,20.092468
2019-06-20T16:22:54.531Z,20.11261
2019-06-20T16:26:22.485Z,20.152893
2019-06-20T16:29:50.442Z,20.303955
2019-06-20T16:33:24.939Z,20.424805
2019-06-20T16:36:50.337Z,20.596008
2019-06-20T16:40:21.248Z,20.666504
2019-06-20T16:43:49.225Z,20.827637
2019-06-20T16:47:17.256Z,20.797424
2019-06-20T16:50:46.094Z,20.74707
2019-06-20T16:54:14.178Z,20.767212
2019-06-20T16:57:42.175Z,20.666504
2019-06-20T17:01:10.127Z,20.636292
2019-06-20T17:04:38.139Z,20.676575
2019-06-20T17:08:07.208Z,20.555725
2019-06-20T17:11:35.187Z,20.606079
2019-06-20T17:15:03.170Z,20.475159
2019-06-20T17:18:32.573Z,20.475159
2019-06-20T17:22:00.659Z,20.545654
2019-06-20T17:25:37.484Z,20.485229
2019-06-20T17:29:06.853Z,20.475159
2019-06-20T17:32:37.595Z,20.475159
2019-06-20T17:36:17.583Z,20.414734
2019-06-20T17:39:41.802Z,20.485229
2019-06-20T17:43:10.751Z,20.444946
2019-06-20T17:46:39.064Z,20.4953
2019-06-20T17:50:08.840Z,20.525513
2019-06-20T17:53:38.456Z,20.555725
2019-06-20T17:57:07.031Z,20.596008
2019-06-20T18:00:37.057Z,20.666504
2019-06-20T18:04:13.542Z,20.706787
2019-06-20T18:08:27.249Z,20.575867
2019-06-20T18:11:56.155Z,20.596008
2019-06-20T18:15:24.653Z,20.676575
2019-06-20T18:18:56.259Z,20.74707
2019-06-20T18:22:24.981Z,20.737
2019-06-20T18:25:53.444Z,20.575867
2019-06-20T18:29:22.052Z,20.334167
2019-06-20T18:32:50.981Z,20.273743
2019-06-20T18:36:19.939Z,20.082397
2019-06-20T18:39:48.385Z,19.99176
2019-06-20T18:43:16.915Z,19.891052
2019-06-20T18:46:46.151Z,19.780273
2019-06-20T18:50:17.651Z,19.669495
2019-06-20T18:53:49.774Z,19.669495
2019-06-20T18:57:17.204Z,19.528503
2019-06-20T19:00:45.417Z,19.538574
2019-06-20T19:04:13.795Z,19.417725
2019-06-20T19:07:43.149Z,19.367371
2019-06-20T19:11:11.244Z,19.387512
2019-06-20T19:14:39.356Z,19.306946
2019-06-20T19:18:07.416Z,19.165955
2019-06-20T19:21:36.296Z,19.115601
2019-06-20T19:25:05.027Z,19.085388
2019-06-20T19:28:33.616Z,19.085388
2019-06-20T19:32:02.941Z,19.085388
2019-06-20T19:35:43.204Z,19.075317
2019-06-20T19:39:11.384Z,18.98468
2019-06-20T19:42:41.639Z,18.98468
2019-06-20T19:46:10.605Z,18.934326
2019-06-20T19:49:42.730Z,18.964539
2019-06-20T19:53:13.517Z,18.894043
2019-06-20T19:56:43.894Z,18.823547
2019-06-20T20:00:12.016Z,18.793335
2019-06-20T20:03:40.132Z,18.783264
2019-06-20T20:07:08.215Z,18.753052
2019-06-20T20:10:39.398Z,18.702698
2019-06-20T20:14:10.331Z,18.682556
2019-06-20T20:17:38.389Z,18.672485
2019-06-20T20:21:06.506Z,18.672485
2019-06-20T20:24:35.218Z,18.662415
2019-06-20T20:28:04.516Z,18.561707
2019-06-20T20:31:32.671Z,18.541565
2019-06-20T20:35:00.927Z,18.541565
2019-06-20T20:38:28.992Z,18.521423
2019-06-20T20:41:57.235Z,18.420715
2019-06-20T20:45:26.509Z,18.390503
2019-06-20T20:48:56.801Z,18.309937
2019-06-20T20:52:25.016Z,18.259583
2019-06-20T20:55:53.105Z,18.299866
2019-06-20T20:59:22.130Z,18.239441
2019-06-20T21:02:50.215Z,18.239441
2019-06-20T21:06:18.309Z,18.179016
2019-06-20T21:09:46.378Z,18.088379
2019-06-20T21:13:14.530Z,18.118591
2019-06-20T21:16:42.686Z,18.058167
2019-06-20T21:20:10.762Z,17.937317
2019-06-20T21:23:38.978Z,17.836609
2019-06-20T21:27:07.187Z,17.85675
2019-06-20T21:30:36.241Z,17.675476
2019-06-20T21:34:04.462Z,17.685547
2019-06-20T21:37:32.633Z,17.72583
2019-06-20T21:41:00.928Z,17.756042
2019-06-20T21:44:30.610Z,17.776184
2019-06-20T21:47:58.751Z,17.705688
2019-06-20T21:51:26.866Z,17.625122
2019-06-20T21:54:55.011Z,17.705688
2019-06-20T21:58:23.145Z,17.745972
